createdAt,value
2023-04-15T00:00:16.362Z,25.49
2023-04-15T00:01:16.370Z,25.48
2023-04-15T00:02:16.540Z,25.48
2023-04-15T00:03:16.500Z,25.49
2023-04-15T00:04:16.583Z,25.48
2023-04-15T00:05:16.383Z,25.48
2023-04-15T00:06:16.338Z,25.48
2023-04-15T00:07:16.363Z,25.48
2023-04-15T00:08:16.359Z,25.47
2023-04-15T00:09:16.415Z,25.47
2023-04-15T00:10:16.470Z,25.47
2023-04-15T00:11:16.525Z,25.47
2023-04-15T00:12:16.583Z,25.47
2023-04-15T00:13:16.666Z,25.46
2023-04-15T00:14:16.705Z,25.47
2023-04-15T00:15:16.774Z,25.46
2023-04-15T00:16:16.840Z,25.46
2023-04-15T00:17:16.868Z,25.45
2023-04-15T00:18:16.959Z,25.46
2023-04-15T00:19:17.020Z,25.45
2023-04-15T00:20:17.062Z,25.45
2023-04-15T00:21:17.153Z,25.45
2023-04-15T00:22:17.174Z,25.45
2023-04-15T00:23:17.323Z,25.44
2023-04-15T00:24:17.272Z,25.44
2023-04-15T00:25:17.417Z,25.44
2023-04-15T00:26:17.523Z,25.45
2023-04-15T00:27:17.462Z,25.44
2023-04-15T00:28:17.516Z,25.44
2023-04-15T00:29:17.573Z,25.44
2023-04-15T00:30:17.626Z,25.44
2023-04-15T00:31:17.719Z,25.43
2023-04-15T00:32:17.695Z,25.43
2023-04-15T00:33:17.763Z,25.43
2023-04-15T00:34:17.757Z,25.43
2023-04-15T00:35:17.803Z,25.43
2023-04-15T00:36:17.900Z,25.42
2023-04-15T00:37:17.896Z,25.42
2023-04-15T00:38:17.934Z,25.42
2023-04-15T00:39:17.941Z,25.42
2023-04-15T00:40:18.008Z,25.42
2023-04-15T00:41:18.022Z,25.42
2023-04-15T00:42:18.007Z,25.42
2023-04-15T00:43:18.067Z,25.41
2023-04-15T00:44:18.136Z,25.41
2023-04-15T00:45:18.197Z,25.41
2023-04-15T00:46:18.346Z,25.40
2023-04-15T00:47:18.258Z,25.41
2023-04-15T00:48:18.309Z,25.41
2023-04-15T00:49:18.348Z,25.40
2023-04-15T00:50:18.404Z,25.40
2023-04-15T00:51:18.399Z,25.40
2023-04-15T00:52:18.417Z,25.39
2023-04-15T00:53:18.449Z,25.39
2023-04-15T00:54:18.515Z,25.39
2023-04-15T00:55:18.514Z,25.39
2023-04-15T00:56:18.536Z,25.39
2023-04-15T00:57:18.565Z,25.40
2023-04-15T00:58:18.608Z,25.39
2023-04-15T00:59:18.663Z,25.38
2023-04-15T01:00:18.696Z,25.39
2023-04-15T01:01:18.725Z,25.38
2023-04-15T01:02:18.859Z,25.38
2023-04-15T01:03:18.848Z,25.38
2023-04-15T01:04:19.055Z,25.38
2023-04-15T01:05:18.904Z,25.37
2023-04-15T01:06:18.951Z,25.38
2023-04-15T01:07:18.964Z,25.37
2023-04-15T01:08:19.007Z,25.37
2023-04-15T01:09:19.179Z,25.37
2023-04-15T01:10:19.157Z,25.37
2023-04-15T01:11:19.239Z,25.36
2023-04-15T01:12:19.298Z,25.36
2023-04-15T01:13:19.306Z,25.36
2023-04-15T01:14:19.424Z,25.36
2023-04-15T01:15:19.366Z,25.36
2023-04-15T01:16:19.460Z,25.36
2023-04-15T01:17:19.507Z,25.36
2023-04-15T01:18:19.544Z,25.35
2023-04-15T01:19:19.553Z,25.36
2023-04-15T01:20:19.569Z,25.35
2023-04-15T01:21:19.609Z,25.35
2023-04-15T01:22:19.725Z,25.34
2023-04-15T01:23:19.736Z,25.34
2023-04-15T01:24:19.802Z,25.34
2023-04-15T01:25:19.765Z,25.34
2023-04-15T01:26:19.843Z,25.34
2023-04-15T01:27:19.906Z,25.34
2023-04-15T01:28:19.974Z,25.34
2023-04-15T01:29:20.027Z,25.33
2023-04-15T01:30:20.088Z,25.34
2023-04-15T01:31:20.057Z,25.33
2023-04-15T01:32:20.122Z,25.33
2023-04-15T01:33:20.122Z,25.33
2023-04-15T01:34:20.217Z,25.33
2023-04-15T01:35:20.221Z,25.33
2023-04-15T01:36:20.262Z,25.33
2023-04-15T01:37:20.286Z,25.33
2023-04-15T01:38:20.402Z,25.32
2023-04-15T01:39:20.405Z,25.32
2023-04-15T01:40:20.466Z,25.32
2023-04-15T01:41:20.468Z,25.32
2023-04-15T01:42:20.505Z,25.32
2023-04-15T01:43:20.513Z,25.32
2023-04-15T01:44:20.592Z,25.31
2023-04-15T01:45:20.599Z,25.32
2023-04-15T01:46:20.627Z,25.32
2023-04-15T01:47:20.671Z,25.31
2023-04-15T01:48:20.725Z,25.31
2023-04-15T01:49:20.798Z,25.31
2023-04-15T01:50:20.798Z,25.31
2023-04-15T01:51:20.839Z,25.30
2023-04-15T01:52:20.901Z,25.30
2023-04-15T01:53:20.912Z,25.31
2023-04-15T01:54:20.976Z,25.31
2023-04-15T01:55:20.970Z,25.30
2023-04-15T01:56:21.013Z,25.31
2023-04-15T01:57:21.084Z,25.29
2023-04-15T01:58:21.134Z,25.29
2023-04-15T01:59:21.163Z,25.30
2023-04-15T02:00:21.210Z,25.29
2023-04-15T02:01:21.242Z,25.30
2023-04-15T02:02:21.344Z,25.29
2023-04-15T02:03:21.372Z,25.29
2023-04-15T02:04:21.311Z,25.29
2023-04-15T02:05:21.350Z,25.29
2023-04-15T02:06:21.437Z,25.28
2023-04-15T02:07:21.398Z,25.29
2023-04-15T02:08:21.474Z,25.28
2023-04-15T02:09:21.529Z,25.28
2023-04-15T02:10:21.524Z,25.28
2023-04-15T02:11:21.593Z,25.28
2023-04-15T02:12:21.613Z,25.27
2023-04-15T02:13:21.667Z,25.27
2023-04-15T02:14:21.685Z,25.27
2023-04-15T02:15:21.746Z,25.27
2023-04-15T02:16:21.773Z,25.28
2023-04-15T02:17:21.886Z,25.26
2023-04-15T02:18:21.922Z,25.26
2023-04-15T02:19:21.950Z,25.26
2023-04-15T02:20:22.097Z,25.26
2023-04-15T02:21:22.073Z,25.26
2023-04-15T02:22:22.193Z,25.26
2023-04-15T02:23:22.156Z,25.26
2023-04-15T02:24:22.189Z,25.26
2023-04-15T02:25:22.223Z,25.25
2023-04-15T02:26:22.266Z,25.25
2023-04-15T02:27:22.282Z,25.25
2023-04-15T02:28:22.325Z,25.25
2023-04-15T02:29:22.357Z,25.25
2023-04-15T02:30:22.394Z,25.25
2023-04-15T02:31:22.456Z,25.24
2023-04-15T02:32:22.441Z,25.25
2023-04-15T02:33:22.500Z,25.24
2023-04-15T02:34:22.498Z,25.25
2023-04-15T02:35:22.532Z,25.24
2023-04-15T02:36:22.578Z,25.24
2023-04-15T02:37:22.628Z,25.25
2023-04-15T02:38:22.644Z,25.24
2023-04-15T02:39:22.701Z,25.24
2023-04-15T02:40:22.774Z,25.24
2023-04-15T02:41:22.780Z,25.24
2023-04-15T02:42:22.837Z,25.23
2023-04-15T02:43:22.844Z,25.23
2023-04-15T02:44:22.883Z,25.23
2023-04-15T02:45:22.910Z,25.23
2023-04-15T02:46:23.113Z,25.22
2023-04-15T02:47:23.014Z,25.23
2023-04-15T02:48:23.040Z,25.22
2023-04-15T02:49:23.078Z,25.22
2023-04-15T02:50:23.118Z,25.22
2023-04-15T02:51:23.230Z,25.22
2023-04-15T02:52:23.205Z,25.22
2023-04-15T02:53:23.256Z,25.21
2023-04-15T02:54:23.322Z,25.22
2023-04-15T02:55:23.353Z,25.22
2023-04-15T02:56:23.396Z,25.22
2023-04-15T02:57:23.449Z,25.22
2023-04-15T02:58:23.483Z,25.21
2023-04-15T02:59:23.514Z,25.22
2023-04-15T03:00:23.567Z,25.21
2023-04-15T03:01:23.699Z,25.21
2023-04-15T03:02:23.862Z,25.20
2023-04-15T03:03:23.752Z,25.21
2023-04-15T03:04:23.803Z,25.21
2023-04-15T03:05:23.798Z,25.21
2023-04-15T03:06:23.895Z,25.21
2023-04-15T03:07:23.919Z,25.20
2023-04-15T03:08:23.944Z,25.20
2023-04-15T03:09:24.030Z,25.20
2023-04-15T03:10:24.081Z,25.20
2023-04-15T03:11:24.107Z,25.20
2023-04-15T03:12:24.209Z,25.19
2023-04-15T03:13:24.266Z,25.19
2023-04-15T03:14:24.229Z,25.19
2023-04-15T03:15:24.309Z,25.19
2023-04-15T03:16:24.312Z,25.20
2023-04-15T03:17:24.346Z,25.19
2023-04-15T03:18:24.414Z,25.19
2023-04-15T03:19:24.458Z,25.18
2023-04-15T03:20:24.512Z,25.19
2023-04-15T03:21:24.532Z,25.19
2023-04-15T03:22:24.563Z,25.18
2023-04-15T03:23:24.599Z,25.18
2023-04-15T03:24:24.650Z,25.18
2023-04-15T03:25:24.716Z,25.18
2023-04-15T03:26:24.801Z,25.17
2023-04-15T03:27:24.813Z,25.18
2023-04-15T03:28:24.798Z,25.17
2023-04-15T03:29:24.879Z,25.17
2023-04-15T03:30:24.913Z,25.17
2023-04-15T03:31:25.059Z,25.17
2023-04-15T03:32:25.081Z,25.17
2023-04-15T03:33:25.113Z,25.17
2023-04-15T03:34:25.150Z,25.17
2023-04-15T03:35:25.188Z,25.16
2023-04-15T03:36:25.243Z,25.16
2023-04-15T03:37:25.298Z,25.16
2023-04-15T03:38:25.306Z,25.15
2023-04-15T03:39:25.466Z,25.16
2023-04-15T03:40:25.405Z,25.15
2023-04-15T03:41:25.478Z,25.16
2023-04-15T03:42:25.511Z,25.15
2023-04-15T03:43:25.555Z,25.15
2023-04-15T03:44:25.603Z,25.15
2023-04-15T03:45:25.712Z,25.15
2023-04-15T03:46:25.770Z,25.15
2023-04-15T03:47:25.789Z,25.14
2023-04-15T03:48:25.765Z,25.14
2023-04-15T03:49:25.837Z,25.14
2023-04-15T03:50:25.879Z,25.14
2023-04-15T03:51:25.961Z,25.14
2023-04-15T03:52:25.953Z,25.14
2023-04-15T03:53:26.018Z,25.14
2023-04-15T03:54:26.064Z,25.14
2023-04-15T03:55:26.115Z,25.14
2023-04-15T03:56:26.140Z,25.13
2023-04-15T03:57:26.203Z,25.13
2023-04-15T03:58:26.246Z,25.13
2023-04-15T03:59:26.285Z,25.13
2023-04-15T04:00:26.367Z,25.13
2023-04-15T04:01:26.370Z,25.13
2023-04-15T04:02:26.748Z,25.13
2023-04-15T04:03:26.701Z,25.12
2023-04-15T04:04:26.568Z,25.12
2023-04-15T04:05:26.595Z,25.12
2023-04-15T04:06:26.609Z,25.12
2023-04-15T04:07:26.643Z,25.12
2023-04-15T04:08:26.689Z,25.11
2023-04-15T04:09:26.702Z,25.11
2023-04-15T04:10:26.801Z,25.10
2023-04-15T04:11:26.779Z,25.11
2023-04-15T04:12:26.860Z,25.09
2023-04-15T04:13:26.852Z,25.10
2023-04-15T04:14:26.923Z,25.10
2023-04-15T04:15:26.986Z,25.10
2023-04-15T04:16:27.164Z,25.09
2023-04-15T04:17:27.065Z,25.09
2023-04-15T04:18:27.113Z,25.10
2023-04-15T04:19:27.095Z,25.10
2023-04-15T04:20:27.120Z,25.09
2023-04-15T04:21:27.192Z,25.08
2023-04-15T04:22:27.209Z,25.09
2023-04-15T04:23:27.197Z,25.09
2023-04-15T04:24:27.235Z,25.08
2023-04-15T04:25:27.258Z,25.09
2023-04-15T04:26:27.289Z,25.09
2023-04-15T04:27:27.369Z,25.09
2023-04-15T04:28:27.334Z,25.09
2023-04-15T04:29:27.396Z,25.08
2023-04-15T04:30:27.347Z,25.08
2023-04-15T04:31:27.506Z,25.08
2023-04-15T04:32:27.472Z,25.08
2023-04-15T04:33:27.459Z,25.07
2023-04-15T04:34:27.482Z,25.07
2023-04-15T04:35:27.524Z,25.07
2023-04-15T04:36:27.493Z,25.07
2023-04-15T04:37:27.491Z,25.07
2023-04-15T04:38:27.484Z,25.07
2023-04-15T04:39:27.472Z,25.07
2023-04-15T04:40:27.537Z,25.07
2023-04-15T04:41:27.547Z,25.07
2023-04-15T04:42:27.631Z,25.06
2023-04-15T04:43:27.639Z,25.07
2023-04-15T04:44:27.623Z,25.06
2023-04-15T04:45:27.648Z,25.06
2023-04-15T04:46:27.712Z,25.06
2023-04-15T04:47:27.684Z,25.06
2023-04-15T04:48:27.714Z,25.06
2023-04-15T04:49:27.709Z,25.05
2023-04-15T04:50:27.743Z,25.06
2023-04-15T04:51:27.735Z,25.06
2023-04-15T04:52:27.749Z,25.06
2023-04-15T04:53:27.799Z,25.06
2023-04-15T04:54:27.923Z,25.06
2023-04-15T04:55:27.868Z,25.06
2023-04-15T04:56:27.926Z,25.06
2023-04-15T04:57:27.856Z,25.05
2023-04-15T04:58:27.972Z,25.05
2023-04-15T04:59:27.903Z,25.05
2023-04-15T05:00:27.908Z,25.05
2023-04-15T05:01:28.015Z,25.05
2023-04-15T05:02:28.249Z,25.05
2023-04-15T05:03:28.204Z,25.05
2023-04-15T05:04:28.087Z,25.05
2023-04-15T05:05:28.193Z,25.04
2023-04-15T05:06:28.164Z,25.04
2023-04-15T05:07:28.227Z,25.04
2023-04-15T05:08:28.168Z,25.05
2023-04-15T05:09:28.227Z,25.04
2023-04-15T05:10:28.224Z,25.04
2023-04-15T05:11:28.240Z,25.04
2023-04-15T05:12:28.231Z,25.04
2023-04-15T05:13:28.286Z,25.04
2023-04-15T05:14:28.252Z,25.04
2023-04-15T05:15:28.363Z,25.04
2023-04-15T05:16:28.269Z,25.03
2023-04-15T05:17:28.286Z,25.04
2023-04-15T05:18:28.236Z,25.04
2023-04-15T05:19:28.294Z,25.04
2023-04-15T05:20:28.249Z,25.04
2023-04-15T05:21:28.260Z,25.04
2023-04-15T05:22:28.264Z,25.04
2023-04-15T05:23:28.314Z,25.04
2023-04-15T05:24:28.318Z,25.04
2023-04-15T05:25:28.327Z,25.03
2023-04-15T05:26:28.390Z,25.04
2023-04-15T05:27:28.372Z,25.04
2023-04-15T05:28:28.454Z,25.04
2023-04-15T05:29:28.468Z,25.04
2023-04-15T05:30:28.464Z,25.04
2023-04-15T05:31:28.654Z,25.05
2023-04-15T05:32:28.536Z,25.05
2023-04-15T05:33:28.533Z,25.05
2023-04-15T05:34:28.594Z,25.04
2023-04-15T05:35:28.608Z,25.05
2023-04-15T05:36:28.623Z,25.05
2023-04-15T05:37:28.739Z,25.06
2023-04-15T05:38:28.679Z,25.05
2023-04-15T05:39:28.693Z,25.05
2023-04-15T05:40:28.734Z,25.06
2023-04-15T05:41:28.786Z,25.06
2023-04-15T05:42:28.801Z,25.06
2023-04-15T05:43:28.793Z,25.06
2023-04-15T05:44:28.801Z,25.07
2023-04-15T05:45:28.815Z,25.07
2023-04-15T05:46:28.868Z,25.07
2023-04-15T05:47:29.042Z,25.07
2023-04-15T05:48:28.909Z,25.07
2023-04-15T05:49:28.936Z,25.07
2023-04-15T05:50:28.929Z,25.08
2023-04-15T05:51:28.963Z,25.08
2023-04-15T05:52:28.954Z,25.09
2023-04-15T05:53:29.031Z,25.09
2023-04-15T05:54:29.030Z,25.09
2023-04-15T05:55:29.006Z,25.09
2023-04-15T05:56:29.004Z,25.10
2023-04-15T05:57:29.012Z,25.10
2023-04-15T05:58:29.092Z,25.11
2023-04-15T05:59:29.107Z,25.12
2023-04-15T06:00:29.130Z,25.12
2023-04-15T06:01:29.186Z,25.12
2023-04-15T06:02:29.370Z,25.13
2023-04-15T06:03:29.364Z,25.14
2023-04-15T06:04:29.407Z,25.14
2023-04-15T06:05:29.328Z,25.14
2023-04-15T06:06:29.350Z,25.14
2023-04-15T06:07:29.378Z,25.15
2023-04-15T06:08:29.381Z,25.15
2023-04-15T06:09:29.526Z,25.16
2023-04-15T06:10:29.476Z,25.16
2023-04-15T06:11:29.521Z,25.17
2023-04-15T06:12:29.561Z,25.17
2023-04-15T06:13:29.619Z,25.17
2023-04-15T06:14:29.654Z,25.18
2023-04-15T06:15:29.685Z,25.19
2023-04-15T06:16:29.861Z,25.20
2023-04-15T06:17:29.781Z,25.20
2023-04-15T06:18:29.876Z,25.20
2023-04-15T06:19:29.858Z,25.21
2023-04-15T06:20:29.887Z,25.21
2023-04-15T06:21:29.977Z,25.22
2023-04-15T06:22:30.016Z,25.22
2023-04-15T06:23:30.106Z,25.22
2023-04-15T06:24:30.160Z,25.23
2023-04-15T06:25:30.135Z,25.23
2023-04-15T06:26:30.176Z,25.25
2023-04-15T06:27:30.190Z,25.25
2023-04-15T06:28:30.231Z,25.26
2023-04-15T06:29:30.298Z,25.26
2023-04-15T06:30:30.307Z,25.26
2023-04-15T06:31:30.401Z,25.27
2023-04-15T06:32:30.395Z,25.29
2023-04-15T06:33:30.467Z,25.29
2023-04-15T06:34:30.462Z,25.29
2023-04-15T06:35:30.508Z,25.30
2023-04-15T06:36:30.499Z,25.30
2023-04-15T06:37:30.557Z,25.30
2023-04-15T06:38:30.617Z,25.31
2023-04-15T06:39:30.618Z,25.31
2023-04-15T06:40:30.643Z,25.31
2023-04-15T06:41:30.732Z,25.32
2023-04-15T06:42:30.736Z,25.32
2023-04-15T06:43:30.728Z,25.33
2023-04-15T06:44:33.305Z,25.33
2023-04-15T06:45:30.856Z,25.33
2023-04-15T06:46:30.740Z,25.34
2023-04-15T06:47:30.797Z,25.34
2023-04-15T06:48:30.787Z,25.35
2023-04-15T06:49:30.723Z,25.35
2023-04-15T06:50:30.699Z,25.36
2023-04-15T06:51:30.751Z,25.37
2023-04-15T06:52:30.744Z,25.36
2023-04-15T06:53:30.775Z,25.37
2023-04-15T06:54:30.715Z,25.37
2023-04-15T06:55:30.714Z,25.38
2023-04-15T06:56:30.680Z,25.39
2023-04-15T06:57:31.550Z,25.38
2023-04-15T06:58:30.659Z,25.39
2023-04-15T06:59:30.653Z,25.39
2023-04-15T07:00:30.745Z,25.40
2023-04-15T07:01:30.821Z,25.41
2023-04-15T07:02:30.702Z,25.41
2023-04-15T07:03:32.647Z,25.42
2023-04-15T07:04:30.696Z,25.43
2023-04-15T07:05:30.640Z,25.44
2023-04-15T07:06:30.613Z,25.45
2023-04-15T07:07:30.624Z,25.45
2023-04-15T07:08:30.656Z,25.47
2023-04-15T07:09:30.688Z,25.47
2023-04-15T07:10:30.812Z,25.47
2023-04-15T07:11:30.835Z,25.49
2023-04-15T07:12:30.868Z,25.49
2023-04-15T07:13:30.960Z,25.50
2023-04-15T07:14:30.967Z,25.51
2023-04-15T07:15:31.076Z,25.52
2023-04-15T07:16:31.201Z,25.53
2023-04-15T07:17:31.170Z,25.53
2023-04-15T07:18:31.176Z,25.55
2023-04-15T07:19:31.249Z,25.55
2023-04-15T07:20:31.350Z,25.57
2023-04-15T07:21:31.368Z,25.57
2023-04-15T07:22:31.458Z,25.59
2023-04-15T07:23:31.486Z,25.61
2023-04-15T07:24:31.545Z,25.61
2023-04-15T07:25:31.598Z,25.63
2023-04-15T07:26:31.619Z,25.64
2023-04-15T07:27:31.713Z,25.66
2023-04-15T07:28:31.765Z,25.68
2023-04-15T07:29:31.823Z,25.69
2023-04-15T07:30:31.862Z,25.71
2023-04-15T07:31:31.920Z,25.73
2023-04-15T07:32:32.049Z,25.75
2023-04-15T07:33:31.985Z,25.77
2023-04-15T07:34:32.720Z,25.79
2023-04-15T07:35:32.123Z,25.81
2023-04-15T07:36:32.130Z,25.82
2023-04-15T07:37:32.197Z,25.84
2023-04-15T07:38:32.221Z,25.86
2023-04-15T07:39:32.328Z,25.87
2023-04-15T07:40:32.354Z,25.88
2023-04-15T07:41:32.361Z,25.90
2023-04-15T07:42:32.385Z,25.92
2023-04-15T07:43:32.430Z,25.93
2023-04-15T07:44:32.502Z,25.94
2023-04-15T07:45:32.570Z,25.96
2023-04-15T07:46:32.657Z,25.98
2023-04-15T07:47:32.645Z,25.99
2023-04-15T07:48:32.614Z,26.00
2023-04-15T07:49:32.620Z,26.02
2023-04-15T07:50:32.702Z,26.03
2023-04-15T07:51:32.692Z,26.05
2023-04-15T07:52:32.708Z,26.07
2023-04-15T07:53:32.751Z,26.10
2023-04-15T07:54:32.762Z,26.11
2023-04-15T07:55:32.824Z,26.14
2023-04-15T07:56:32.822Z,26.15
2023-04-15T07:57:32.839Z,26.17
2023-04-15T07:58:32.855Z,26.18
2023-04-15T07:59:32.860Z,26.20
2023-04-15T08:00:32.870Z,26.22
2023-04-15T08:01:32.925Z,26.23
2023-04-15T08:02:33.034Z,26.25
2023-04-15T08:03:33.022Z,26.28
2023-04-15T08:04:33.061Z,26.29
2023-04-15T08:05:32.895Z,26.32
2023-04-15T08:06:32.898Z,26.34
2023-04-15T08:07:32.953Z,26.37
2023-04-15T08:08:32.970Z,26.40
2023-04-15T08:09:32.974Z,26.42
2023-04-15T08:10:32.947Z,26.43
2023-04-15T08:11:32.962Z,26.46
2023-04-15T08:12:32.988Z,26.50
2023-04-15T08:13:33.012Z,26.52
2023-04-15T08:14:32.958Z,26.53
2023-04-15T08:15:32.992Z,26.57
2023-04-15T08:16:33.049Z,26.59
2023-04-15T08:17:32.963Z,26.60
2023-04-15T08:18:32.946Z,26.63
2023-04-15T08:19:32.942Z,26.63
2023-04-15T08:20:32.953Z,26.65
2023-04-15T08:21:33.001Z,26.66
2023-04-15T08:22:33.015Z,26.67
2023-04-15T08:23:33.035Z,26.70
2023-04-15T08:24:33.121Z,26.71
2023-04-15T08:25:33.182Z,26.72
2023-04-15T08:26:33.218Z,26.75
2023-04-15T08:27:33.279Z,26.76
2023-04-15T08:28:33.359Z,26.77
2023-04-15T08:29:33.467Z,26.79
2023-04-15T08:30:33.481Z,26.79
2023-04-15T08:31:33.557Z,26.81
2023-04-15T08:32:33.607Z,26.82
2023-04-15T08:33:33.629Z,26.83
2023-04-15T08:34:33.707Z,26.85
2023-04-15T08:35:33.747Z,26.86
2023-04-15T08:36:33.874Z,26.87
2023-04-15T08:37:33.879Z,26.89
2023-04-15T08:38:33.925Z,26.89
2023-04-15T08:39:33.968Z,26.91
2023-04-15T08:40:34.037Z,26.92
2023-04-15T08:41:34.088Z,26.92
2023-04-15T08:42:34.153Z,26.94
2023-04-15T08:43:34.212Z,26.95
2023-04-15T08:44:34.278Z,26.97
2023-04-15T08:45:34.292Z,26.98
2023-04-15T08:46:34.340Z,26.98
2023-04-15T08:47:34.540Z,26.99
2023-04-15T08:48:34.456Z,27.00
2023-04-15T08:49:34.511Z,27.00
2023-04-15T08:50:34.544Z,27.02
2023-04-15T08:51:34.602Z,27.02
2023-04-15T08:52:34.627Z,27.02
2023-04-15T08:53:34.772Z,27.03
2023-04-15T08:54:34.722Z,27.03
2023-04-15T08:55:34.746Z,27.05
2023-04-15T08:56:34.883Z,27.06
2023-04-15T08:57:34.891Z,27.07
2023-04-15T08:58:34.934Z,27.08
2023-04-15T08:59:34.997Z,27.10
2023-04-15T09:00:34.964Z,27.09
2023-04-15T09:01:35.158Z,27.10
2023-04-15T09:02:35.198Z,27.11
2023-04-15T09:03:35.176Z,27.12
2023-04-15T09:04:35.176Z,27.13
2023-04-15T09:05:35.163Z,27.14
2023-04-15T09:06:35.251Z,27.16
2023-04-15T09:07:35.247Z,27.17
2023-04-15T09:08:35.271Z,27.19
2023-04-15T09:09:35.309Z,27.20
2023-04-15T09:10:35.336Z,27.22
2023-04-15T09:11:35.456Z,27.23
2023-04-15T09:12:35.386Z,27.25
2023-04-15T09:13:35.427Z,27.25
2023-04-15T09:14:35.431Z,27.27
2023-04-15T09:15:35.467Z,27.28
2023-04-15T09:16:35.598Z,27.29
2023-04-15T09:17:35.524Z,27.31
2023-04-15T09:18:35.557Z,27.34
2023-04-15T09:19:35.561Z,27.35
2023-04-15T09:20:35.534Z,27.36
2023-04-15T09:21:35.574Z,27.39
2023-04-15T09:22:35.606Z,27.41
2023-04-15T09:23:35.549Z,27.44
2023-04-15T09:24:35.591Z,27.46
2023-04-15T09:25:35.627Z,27.48
2023-04-15T09:26:35.578Z,27.50
2023-04-15T09:27:35.604Z,27.53
2023-04-15T09:28:35.596Z,27.56
2023-04-15T09:29:35.626Z,27.59
2023-04-15T09:30:35.613Z,27.62
2023-04-15T09:31:35.610Z,27.64
2023-04-15T09:32:35.658Z,27.67
2023-04-15T09:33:35.631Z,27.70
2023-04-15T09:34:35.659Z,27.72
2023-04-15T09:35:35.589Z,27.74
2023-04-15T09:36:35.643Z,27.76
2023-04-15T09:37:35.638Z,27.77
2023-04-15T09:38:35.658Z,27.78
2023-04-15T09:39:35.635Z,27.80
2023-04-15T09:40:35.694Z,27.81
2023-04-15T09:41:35.730Z,27.82
2023-04-15T09:42:35.846Z,27.82
2023-04-15T09:43:35.828Z,27.82
2023-04-15T09:44:35.866Z,27.83
2023-04-15T09:45:35.938Z,27.84
2023-04-15T09:46:36.049Z,27.84
2023-04-15T09:47:36.070Z,27.84
2023-04-15T09:48:36.141Z,27.85
2023-04-15T09:49:36.183Z,27.85
2023-04-15T09:50:36.254Z,27.85
2023-04-15T09:51:36.258Z,27.86
2023-04-15T09:52:36.370Z,27.86
2023-04-15T09:53:36.353Z,27.88
2023-04-15T09:54:36.542Z,27.88
2023-04-15T09:55:36.492Z,27.88
2023-04-15T09:56:36.494Z,27.89
2023-04-15T09:57:36.636Z,27.90
2023-04-15T09:58:36.668Z,27.90
2023-04-15T09:59:36.694Z,27.91
2023-04-15T10:00:36.786Z,27.91
2023-04-15T10:01:36.900Z,27.92
2023-04-15T10:02:36.993Z,27.93
2023-04-15T10:03:37.019Z,27.93
2023-04-15T10:04:36.982Z,27.94
2023-04-15T10:05:37.077Z,27.95
2023-04-15T10:06:37.090Z,27.95
2023-04-15T10:07:37.154Z,27.96
2023-04-15T10:08:37.194Z,27.98
2023-04-15T10:09:37.243Z,28.00
2023-04-15T10:10:37.317Z,28.02
2023-04-15T10:11:37.432Z,28.02
2023-04-15T10:12:37.430Z,28.03
2023-04-15T10:13:37.568Z,28.04
2023-04-15T10:14:37.503Z,28.05
2023-04-15T10:15:37.709Z,28.06
2023-04-15T10:16:37.666Z,28.07
2023-04-15T10:17:37.748Z,28.09
2023-04-15T10:18:37.747Z,28.09
2023-04-15T10:19:37.822Z,28.09
2023-04-15T10:20:37.897Z,28.10
2023-04-15T10:21:38.014Z,28.10
2023-04-15T10:22:37.983Z,28.11
2023-04-15T10:23:38.040Z,28.11
2023-04-15T10:24:38.073Z,28.11
2023-04-15T10:25:38.125Z,28.11
2023-04-15T10:26:38.198Z,28.11
2023-04-15T10:27:38.237Z,28.11
2023-04-15T10:28:38.284Z,28.11
2023-04-15T10:29:38.332Z,28.11
2023-04-15T10:30:38.396Z,28.09
2023-04-15T10:31:38.504Z,28.10
2023-04-15T10:32:38.551Z,28.10
2023-04-15T10:33:38.557Z,28.09
2023-04-15T10:34:38.603Z,28.10
2023-04-15T10:35:38.638Z,28.11
2023-04-15T10:36:38.712Z,28.11
2023-04-15T10:37:38.793Z,28.12
2023-04-15T10:38:38.839Z,28.13
2023-04-15T10:39:38.890Z,28.14
2023-04-15T10:40:38.911Z,28.15
2023-04-15T10:41:38.947Z,28.17
2023-04-15T10:42:39.028Z,28.19
2023-04-15T10:43:39.084Z,28.20
2023-04-15T10:44:39.136Z,28.23
2023-04-15T10:45:39.193Z,28.25
2023-04-15T10:46:39.356Z,28.29
2023-04-15T10:47:39.338Z,28.31
2023-04-15T10:48:39.414Z,28.34
2023-04-15T10:49:39.453Z,28.34
2023-04-15T10:50:39.540Z,28.36
2023-04-15T10:51:39.526Z,28.36
2023-04-15T10:52:39.620Z,28.37
2023-04-15T10:53:39.652Z,28.38
2023-04-15T10:54:39.715Z,28.38
2023-04-15T10:55:39.737Z,28.37
2023-04-15T10:56:39.805Z,28.37
2023-04-15T10:57:39.850Z,28.36
2023-04-15T10:58:39.892Z,28.37
2023-04-15T10:59:39.920Z,28.36
2023-04-15T11:00:40.034Z,28.36
2023-04-15T11:01:40.058Z,28.35
2023-04-15T11:02:40.281Z,28.36
2023-04-15T11:03:40.454Z,28.34
2023-04-15T11:04:41.840Z,28.34
2023-04-15T11:05:40.263Z,28.34
2023-04-15T11:06:40.203Z,28.35
2023-04-15T11:07:40.214Z,28.35
2023-04-15T11:08:40.154Z,28.35
2023-04-15T11:09:40.169Z,28.36
2023-04-15T11:10:40.139Z,28.36
2023-04-15T11:11:40.126Z,28.38
2023-04-15T11:12:40.119Z,28.38
2023-04-15T11:13:40.163Z,28.40
2023-04-15T11:14:40.130Z,28.41
2023-04-15T11:15:40.116Z,28.43
2023-04-15T11:16:40.215Z,28.45
2023-04-15T11:17:40.109Z,28.46
2023-04-15T11:18:40.117Z,28.48
2023-04-15T11:19:40.060Z,28.50
2023-04-15T11:20:40.136Z,28.51
2023-04-15T11:21:40.048Z,28.53
2023-04-15T11:22:40.049Z,28.55
2023-04-15T11:23:40.097Z,28.57
2023-04-15T11:24:40.068Z,28.59
2023-04-15T11:26:29.899Z,28.61
2023-04-15T11:27:29.944Z,28.62
2023-04-15T11:28:29.845Z,28.63
2023-04-15T11:29:29.862Z,28.64
2023-04-15T11:30:29.863Z,28.65
2023-04-15T11:31:29.896Z,28.66
2023-04-15T11:32:29.834Z,28.65
2023-04-15T11:33:29.832Z,28.65
2023-04-15T11:34:29.838Z,28.66
2023-04-15T11:35:29.788Z,28.66
2023-04-15T11:36:29.877Z,28.66
2023-04-15T11:37:29.827Z,28.66
2023-04-15T11:38:29.823Z,28.66
2023-04-15T11:39:29.833Z,28.65
2023-04-15T11:40:29.772Z,28.65
2023-04-15T11:41:29.780Z,28.64
2023-04-15T11:42:42.783Z,28.64
2023-04-15T11:43:30.774Z,28.62
2023-04-15T11:44:29.760Z,28.62
2023-04-15T11:45:29.784Z,28.62
2023-04-15T11:46:29.737Z,28.61
2023-04-15T11:47:29.751Z,28.61
2023-04-15T11:48:29.733Z,28.60
2023-04-15T11:49:29.705Z,28.59
2023-04-15T11:50:29.706Z,28.59
2023-04-15T11:51:29.696Z,28.58
2023-04-15T11:52:29.678Z,28.58
2023-04-15T11:53:29.685Z,28.58
2023-04-15T11:54:29.669Z,28.57
2023-04-15T11:55:29.664Z,28.57
2023-04-15T11:56:29.668Z,28.56
2023-04-15T11:57:29.682Z,28.56
2023-04-15T11:58:29.682Z,28.54
2023-04-15T11:59:38.956Z,28.52
2023-04-15T12:00:30.685Z,28.52
2023-04-15T12:01:29.665Z,28.50
2023-04-15T12:02:29.783Z,28.49
2023-04-15T12:03:29.838Z,28.48
2023-04-15T12:04:29.923Z,28.46
2023-04-15T12:05:29.643Z,28.46
2023-04-15T12:06:29.578Z,28.44
2023-04-15T12:07:29.610Z,28.43
2023-04-15T12:08:29.611Z,28.43
2023-04-15T12:09:30.933Z,28.42
2023-04-15T12:10:29.624Z,28.43
2023-04-15T12:11:29.601Z,28.43
2023-04-15T12:12:29.536Z,28.42
2023-04-15T12:13:29.535Z,28.43
2023-04-15T12:14:29.619Z,28.43
2023-04-15T12:15:29.606Z,28.44
2023-04-15T12:16:29.563Z,28.45
2023-04-15T12:17:29.617Z,28.46
2023-04-15T12:18:30.542Z,28.46
2023-04-15T12:19:29.532Z,28.47
2023-04-15T12:20:29.539Z,28.49
2023-04-15T12:21:29.497Z,28.49
2023-04-15T12:22:29.498Z,28.51
2023-04-15T12:23:29.548Z,28.51
2023-04-15T12:24:29.565Z,28.51
2023-04-15T12:25:29.468Z,28.51
2023-04-15T12:26:29.499Z,28.51
2023-04-15T12:27:29.952Z,28.50
2023-04-15T12:28:29.429Z,28.50
2023-04-15T12:29:29.439Z,28.49
2023-04-15T12:30:29.452Z,28.48
2023-04-15T12:31:29.541Z,28.48
2023-04-15T12:32:29.453Z,28.46
2023-04-15T12:33:29.429Z,28.45
2023-04-15T12:34:29.512Z,28.44
2023-04-15T12:35:29.434Z,28.43
2023-04-15T12:36:29.406Z,28.41
2023-04-15T12:37:29.422Z,28.40
2023-04-15T12:38:29.410Z,28.38
2023-04-15T12:39:30.814Z,28.37
2023-04-15T12:40:29.387Z,28.36
2023-04-15T12:41:29.353Z,28.35
2023-04-15T12:42:29.434Z,28.33
2023-04-15T12:43:29.441Z,28.32
2023-04-15T12:44:29.459Z,28.30
2023-04-15T12:45:30.009Z,28.29
2023-04-15T12:46:29.546Z,28.28
2023-04-15T12:47:29.528Z,28.26
2023-04-15T12:48:29.568Z,28.24
2023-04-15T12:49:29.653Z,28.23
2023-04-15T12:50:29.652Z,28.22
2023-04-15T12:51:29.657Z,28.21
2023-04-15T12:52:29.709Z,28.20
2023-04-15T12:53:29.714Z,28.19